sensor_id;sensor_type;location;lat;lon;timestamp;temperature;humidity
8832;DHT22;4452;50.756;4.472;2023-05-07T00:01:47;15.00;99.90
8832;DHT22;4452;50.756;4.472;2023-05-07T00:04:13;15.00;99.90
8832;DHT22;4452;50.756;4.472;2023-05-07T00:06:39;15.00;99.90
8832;DHT22;4452;50.756;4.472;2023-05-07T00:09:05;15.20;99.90
8832;DHT22;4452;50.756;4.472;2023-05-07T00:11:31;15.20;99.90
8832;DHT22;4452;50.756;4.472;2023-05-07T00:13:57;15.20;99.90
8832;DHT22;4452;50.756;4.472;2023-05-07T00:16:23;15.20;99.90
8832;DHT22;4452;50.756;4.472;2023-05-07T00:18:48;15.10;99.90
8832;DHT22;4452;50.756;4.472;2023-05-07T00:21:14;15.10;99.90
8832;DHT22;4452;50.756;4.472;2023-05-07T00:23:40;15.00;99.90
8832;DHT22;4452;50.756;4.472;2023-05-07T00:26:05;15.00;99.90
8832;DHT22;4452;50.756;4.472;2023-05-07T00:28:31;14.90;99.90
8832;DHT22;4452;50.756;4.472;2023-05-07T00:30:57;14.90;99.90
8832;DHT22;4452;50.756;4.472;2023-05-07T00:33:23;14.90;99.90
8832;DHT22;4452;50.756;4.472;2023-05-07T00:35:49;15.00;99.90
8832;DHT22;4452;50.756;4.472;2023-05-07T00:38:15;15.00;99.90
8832;DHT22;4452;50.756;4.472;2023-05-07T00:40:40;15.00;99.90
8832;DHT22;4452;50.756;4.472;2023-05-07T00:43:07;15.00;99.90
8832;DHT22;4452;50.756;4.472;2023-05-07T00:45:34;15.00;99.90
8832;DHT22;4452;50.756;4.472;2023-05-07T00:48:01;15.00;99.90
8832;DHT22;4452;50.756;4.472;2023-05-07T00:50:28;15.00;99.90
8832;DHT22;4452;50.756;4.472;2023-05-07T00:52:55;14.90;99.90
8832;DHT22;4452;50.756;4.472;2023-05-07T00:55:22;14.90;99.90
8832;DHT22;4452;50.756;4.472;2023-05-07T00:57:50;14.90;99.90
8832;DHT22;4452;50.756;4.472;2023-05-07T01:00:16;14.80;99.90
8832;DHT22;4452;50.756;4.472;2023-05-07T01:02:43;14.60;99.90
8832;DHT22;4452;50.756;4.472;2023-05-07T01:05:12;14.60;99.90
8832;DHT22;4452;50.756;4.472;2023-05-07T01:07:40;14.60;99.90
8832;DHT22;4452;50.756;4.472;2023-05-07T01:10:07;14.50;99.90
8832;DHT22;4452;50.756;4.472;2023-05-07T01:12:38;14.50;99.90
8832;DHT22;4452;50.756;4.472;2023-05-07T01:15:06;14.60;99.90
8832;DHT22;4452;50.756;4.472;2023-05-07T01:17:37;14.50;99.90
8832;DHT22;4452;50.756;4.472;2023-05-07T01:20:07;14.50;99.90
8832;DHT22;4452;50.756;4.472;2023-05-07T01:22:34;14.50;99.90
8832;DHT22;4452;50.756;4.472;2023-05-07T01:25:02;14.40;99.90
8832;DHT22;4452;50.756;4.472;2023-05-07T01:27:28;14.30;99.90
8832;DHT22;4452;50.756;4.472;2023-05-07T01:29:54;14.40;99.90
8832;DHT22;4452;50.756;4.472;2023-05-07T01:32:49;14.40;99.90
8832;DHT22;4452;50.756;4.472;2023-05-07T01:35:19;14.40;99.90
8832;DHT22;4452;50.756;4.472;2023-05-07T01:37:46;14.50;99.90
8832;DHT22;4452;50.756;4.472;2023-05-07T01:40:13;14.50;99.90
8832;DHT22;4452;50.756;4.472;2023-05-07T01:42:39;14.50;99.90
8832;DHT22;4452;50.756;4.472;2023-05-07T01:45:06;14.50;99.90
8832;DHT22;4452;50.756;4.472;2023-05-07T01:47:32;14.50;99.90
8832;DHT22;4452;50.756;4.472;2023-05-07T01:49:58;14.60;99.90
8832;DHT22;4452;50.756;4.472;2023-05-07T01:52:24;14.50;99.90
8832;DHT22;4452;50.756;4.472;2023-05-07T01:54:50;14.50;99.90
8832;DHT22;4452;50.756;4.472;2023-05-07T01:57:16;14.50;99.90
8832;DHT22;4452;50.756;4.472;2023-05-07T01:59:42;14.20;99.90
8832;DHT22;4452;50.756;4.472;2023-05-07T02:02:07;14.00;99.90
8832;DHT22;4452;50.756;4.472;2023-05-07T02:04:33;13.80;99.90
8832;DHT22;4452;50.756;4.472;2023-05-07T02:06:59;13.80;99.90
8832;DHT22;4452;50.756;4.472;2023-05-07T02:09:24;13.80;99.90
8832;DHT22;4452;50.756;4.472;2023-05-07T02:11:50;13.80;99.90
8832;DHT22;4452;50.756;4.472;2023-05-07T02:14:16;13.90;99.90
8832;DHT22;4452;50.756;4.472;2023-05-07T02:16:41;14.00;99.90
8832;DHT22;4452;50.756;4.472;2023-05-07T02:19:07;14.00;99.90
8832;DHT22;4452;50.756;4.472;2023-05-07T02:21:33;14.00;99.90
8832;DHT22;4452;50.756;4.472;2023-05-07T02:23:58;14.10;99.90
8832;DHT22;4452;50.756;4.472;2023-05-07T02:26:24;14.10;99.90
8832;DHT22;4452;50.756;4.472;2023-05-07T02:28:51;14.10;99.90
8832;DHT22;4452;50.756;4.472;2023-05-07T02:31:17;14.00;99.90
8832;DHT22;4452;50.756;4.472;2023-05-07T02:33:43;13.90;99.90
8832;DHT22;4452;50.756;4.472;2023-05-07T02:36:12;13.80;99.90
8832;DHT22;4452;50.756;4.472;2023-05-07T02:38:38;13.70;99.90
8832;DHT22;4452;50.756;4.472;2023-05-07T02:41:04;13.70;99.90
8832;DHT22;4452;50.756;4.472;2023-05-07T02:43:30;13.70;99.90
8832;DHT22;4452;50.756;4.472;2023-05-07T02:46:02;13.80;99.90
8832;DHT22;4452;50.756;4.472;2023-05-07T02:48:28;13.70;99.90
8832;DHT22;4452;50.756;4.472;2023-05-07T02:50:54;13.50;99.90
8832;DHT22;4452;50.756;4.472;2023-05-07T02:53:20;13.50;99.90
8832;DHT22;4452;50.756;4.472;2023-05-07T02:55:45;13.60;99.90
8832;DHT22;4452;50.756;4.472;2023-05-07T02:58:11;13.60;99.90
8832;DHT22;4452;50.756;4.472;2023-05-07T03:00:37;13.80;99.90
8832;DHT22;4452;50.756;4.472;2023-05-07T03:03:03;13.90;99.90
8832;DHT22;4452;50.756;4.472;2023-05-07T03:05:28;13.90;99.90
8832;DHT22;4452;50.756;4.472;2023-05-07T03:07:54;14.00;99.90
8832;DHT22;4452;50.756;4.472;2023-05-07T03:10:20;14.10;99.90
8832;DHT22;4452;50.756;4.472;2023-05-07T03:12:45;14.00;99.90
8832;DHT22;4452;50.756;4.472;2023-05-07T03:15:11;14.10;99.90
8832;DHT22;4452;50.756;4.472;2023-05-07T03:17:38;14.10;99.90
8832;DHT22;4452;50.756;4.472;2023-05-07T03:20:04;14.00;99.90
8832;DHT22;4452;50.756;4.472;2023-05-07T03:22:30;13.90;99.90
8832;DHT22;4452;50.756;4.472;2023-05-07T03:24:56;13.90;99.90
8832;DHT22;4452;50.756;4.472;2023-05-07T03:27:22;13.80;99.90
8832;DHT22;4452;50.756;4.472;2023-05-07T03:29:47;13.90;99.90
8832;DHT22;4452;50.756;4.472;2023-05-07T03:32:13;13.80;99.90
8832;DHT22;4452;50.756;4.472;2023-05-07T03:34:39;13.70;99.90
8832;DHT22;4452;50.756;4.472;2023-05-07T03:37:05;13.80;99.90
8832;DHT22;4452;50.756;4.472;2023-05-07T03:39:31;13.90;99.90
8832;DHT22;4452;50.756;4.472;2023-05-07T03:41:58;14.00;99.90
8832;DHT22;4452;50.756;4.472;2023-05-07T03:44:23;14.00;99.90
8832;DHT22;4452;50.756;4.472;2023-05-07T03:46:49;14.00;99.90
8832;DHT22;4452;50.756;4.472;2023-05-07T03:49:14;14.10;99.90
8832;DHT22;4452;50.756;4.472;2023-05-07T03:51:40;14.20;99.90
8832;DHT22;4452;50.756;4.472;2023-05-07T03:54:06;14.20;99.90
8832;DHT22;4452;50.756;4.472;2023-05-07T03:56:32;14.10;99.90
8832;DHT22;4452;50.756;4.472;2023-05-07T03:58:57;14.10;99.90
8832;DHT22;4452;50.756;4.472;2023-05-07T04:01:23;14.20;99.90
8832;DHT22;4452;50.756;4.472;2023-05-07T04:03:49;14.20;99.90
8832;DHT22;4452;50.756;4.472;2023-05-07T04:06:16;14.20;99.90
8832;DHT22;4452;50.756;4.472;2023-05-07T04:08:43;14.20;99.90
8832;DHT22;4452;50.756;4.472;2023-05-07T04:11:08;14.10;99.90
8832;DHT22;4452;50.756;4.472;2023-05-07T04:13:34;14.10;99.90
8832;DHT22;4452;50.756;4.472;2023-05-07T04:16:02;14.00;99.90
8832;DHT22;4452;50.756;4.472;2023-05-07T04:18:28;14.10;99.90
8832;DHT22;4452;50.756;4.472;2023-05-07T04:20:54;14.10;99.90
8832;DHT22;4452;50.756;4.472;2023-05-07T04:23:20;14.10;99.90
8832;DHT22;4452;50.756;4.472;2023-05-07T04:25:46;14.20;99.90
8832;DHT22;4452;50.756;4.472;2023-05-07T04:28:12;14.20;99.90
8832;DHT22;4452;50.756;4.472;2023-05-07T04:30:38;14.10;99.90
8832;DHT22;4452;50.756;4.472;2023-05-07T04:33:04;14.20;99.90
8832;DHT22;4452;50.756;4.472;2023-05-07T04:35:30;14.20;99.90
8832;DHT22;4452;50.756;4.472;2023-05-07T04:37:56;14.10;99.90
8832;DHT22;4452;50.756;4.472;2023-05-07T04:40:22;13.90;99.90
8832;DHT22;4452;50.756;4.472;2023-05-07T04:42:48;13.80;99.90
8832;DHT22;4452;50.756;4.472;2023-05-07T04:45:13;14.00;99.90
8832;DHT22;4452;50.756;4.472;2023-05-07T04:47:39;14.10;99.90
8832;DHT22;4452;50.756;4.472;2023-05-07T04:50:06;14.10;99.90
8832;DHT22;4452;50.756;4.472;2023-05-07T04:52:33;14.20;99.90
8832;DHT22;4452;50.756;4.472;2023-05-07T04:54:59;14.30;99.90
8832;DHT22;4452;50.756;4.472;2023-05-07T04:57:27;14.30;99.90
8832;DHT22;4452;50.756;4.472;2023-05-07T04:59:53;14.40;99.90
8832;DHT22;4452;50.756;4.472;2023-05-07T05:02:19;14.50;99.90
8832;DHT22;4452;50.756;4.472;2023-05-07T05:04:45;14.60;99.90
8832;DHT22;4452;50.756;4.472;2023-05-07T05:07:11;14.50;99.90
8832;DHT22;4452;50.756;4.472;2023-05-07T05:09:37;14.60;99.90
8832;DHT22;4452;50.756;4.472;2023-05-07T05:12:02;14.60;99.90
8832;DHT22;4452;50.756;4.472;2023-05-07T05:14:29;14.70;99.90
8832;DHT22;4452;50.756;4.472;2023-05-07T05:16:55;14.70;99.90
8832;DHT22;4452;50.756;4.472;2023-05-07T05:19:20;14.70;99.90
8832;DHT22;4452;50.756;4.472;2023-05-07T05:21:46;14.70;99.90
8832;DHT22;4452;50.756;4.472;2023-05-07T05:24:12;14.70;99.90
8832;DHT22;4452;50.756;4.472;2023-05-07T05:26:38;14.60;99.90
8832;DHT22;4452;50.756;4.472;2023-05-07T05:29:03;14.60;99.90
8832;DHT22;4452;50.756;4.472;2023-05-07T05:31:29;14.80;99.90
8832;DHT22;4452;50.756;4.472;2023-05-07T05:33:55;14.90;99.90
8832;DHT22;4452;50.756;4.472;2023-05-07T05:36:21;14.90;99.90
8832;DHT22;4452;50.756;4.472;2023-05-07T05:38:46;14.90;99.90
8832;DHT22;4452;50.756;4.472;2023-05-07T05:41:12;14.80;99.90
8832;DHT22;4452;50.756;4.472;2023-05-07T05:43:38;14.60;99.90
8832;DHT22;4452;50.756;4.472;2023-05-07T05:46:03;14.30;99.90
8832;DHT22;4452;50.756;4.472;2023-05-07T05:48:36;14.40;99.90
8832;DHT22;4452;50.756;4.472;2023-05-07T05:51:01;14.60;99.90
8832;DHT22;4452;50.756;4.472;2023-05-07T05:53:27;14.70;99.90
8832;DHT22;4452;50.756;4.472;2023-05-07T05:55:53;14.60;99.90
8832;DHT22;4452;50.756;4.472;2023-05-07T05:58:18;14.50;99.90
8832;DHT22;4452;50.756;4.472;2023-05-07T06:00:45;14.50;99.90
8832;DHT22;4452;50.756;4.472;2023-05-07T06:03:11;14.30;99.90
8832;DHT22;4452;50.756;4.472;2023-05-07T06:05:36;14.10;99.90
8832;DHT22;4452;50.756;4.472;2023-05-07T06:08:02;14.30;99.90
8832;DHT22;4452;50.756;4.472;2023-05-07T06:10:28;14.20;99.90
8832;DHT22;4452;50.756;4.472;2023-05-07T06:12:55;14.30;99.90
8832;DHT22;4452;50.756;4.472;2023-05-07T06:15:21;14.40;99.90
8832;DHT22;4452;50.756;4.472;2023-05-07T06:17:47;14.60;99.90
8832;DHT22;4452;50.756;4.472;2023-05-07T06:20:12;14.80;99.90
8832;DHT22;4452;50.756;4.472;2023-05-07T06:22:38;14.90;99.90
8832;DHT22;4452;50.756;4.472;2023-05-07T06:25:04;14.90;99.90
8832;DHT22;4452;50.756;4.472;2023-05-07T06:27:30;14.90;99.90
8832;DHT22;4452;50.756;4.472;2023-05-07T06:29:55;15.40;99.90
8832;DHT22;4452;50.756;4.472;2023-05-07T06:32:21;15.00;99.90
8832;DHT22;4452;50.756;4.472;2023-05-07T06:34:47;15.00;99.90
8832;DHT22;4452;50.756;4.472;2023-05-07T06:37:12;15.00;99.90
8832;DHT22;4452;50.756;4.472;2023-05-07T06:39:38;14.90;99.90
8832;DHT22;4452;50.756;4.472;2023-05-07T06:42:04;14.80;99.90
8832;DHT22;4452;50.756;4.472;2023-05-07T06:44:30;14.80;99.90
8832;DHT22;4452;50.756;4.472;2023-05-07T06:46:56;14.70;99.90
8832;DHT22;4452;50.756;4.472;2023-05-07T06:49:22;14.70;99.90
8832;DHT22;4452;50.756;4.472;2023-05-07T06:51:48;14.70;99.90
8832;DHT22;4452;50.756;4.472;2023-05-07T06:54:13;14.70;99.90
8832;DHT22;4452;50.756;4.472;2023-05-07T06:56:39;14.60;99.90
8832;DHT22;4452;50.756;4.472;2023-05-07T06:59:06;14.60;99.90
8832;DHT22;4452;50.756;4.472;2023-05-07T07:01:31;14.60;99.90
8832;DHT22;4452;50.756;4.472;2023-05-07T07:03:57;14.60;99.90
8832;DHT22;4452;50.756;4.472;2023-05-07T07:06:23;14.70;99.90
8832;DHT22;4452;50.756;4.472;2023-05-07T07:08:49;14.50;99.90
8832;DHT22;4452;50.756;4.472;2023-05-07T07:11:14;14.50;99.90
8832;DHT22;4452;50.756;4.472;2023-05-07T07:13:41;14.70;99.90
8832;DHT22;4452;50.756;4.472;2023-05-07T07:16:08;14.60;99.90
8832;DHT22;4452;50.756;4.472;2023-05-07T07:18:33;14.60;99.90
8832;DHT22;4452;50.756;4.472;2023-05-07T07:20:59;14.60;99.90
8832;DHT22;4452;50.756;4.472;2023-05-07T07:23:25;14.60;99.90
8832;DHT22;4452;50.756;4.472;2023-05-07T07:25:51;14.60;99.90
8832;DHT22;4452;50.756;4.472;2023-05-07T07:28:17;14.70;99.90
8832;DHT22;4452;50.756;4.472;2023-05-07T07:30:42;14.70;99.90
8832;DHT22;4452;50.756;4.472;2023-05-07T07:33:08;14.70;99.90
8832;DHT22;4452;50.756;4.472;2023-05-07T07:35:34;14.60;99.90
8832;DHT22;4452;50.756;4.472;2023-05-07T07:38:00;14.60;99.90
8832;DHT22;4452;50.756;4.472;2023-05-07T07:40:26;14.70;99.90
8832;DHT22;4452;50.756;4.472;2023-05-07T07:42:53;14.80;99.90
8832;DHT22;4452;50.756;4.472;2023-05-07T07:45:18;14.70;99.90
8832;DHT22;4452;50.756;4.472;2023-05-07T07:47:44;14.60;99.90
8832;DHT22;4452;50.756;4.472;2023-05-07T07:50:10;14.70;99.90
8832;DHT22;4452;50.756;4.472;2023-05-07T07:52:36;15.00;99.90
8832;DHT22;4452;50.756;4.472;2023-05-07T07:55:02;15.10;99.90
8832;DHT22;4452;50.756;4.472;2023-05-07T07:57:28;15.20;99.90
8832;DHT22;4452;50.756;4.472;2023-05-07T07:59:54;15.20;99.90
8832;DHT22;4452;50.756;4.472;2023-05-07T08:02:20;15.10;99.90
8832;DHT22;4452;50.756;4.472;2023-05-07T08:04:45;15.10;99.90
8832;DHT22;4452;50.756;4.472;2023-05-07T08:07:11;15.20;99.90
8832;DHT22;4452;50.756;4.472;2023-05-07T08:09:38;15.30;99.90
8832;DHT22;4452;50.756;4.472;2023-05-07T08:12:07;15.30;99.90
8832;DHT22;4452;50.756;4.472;2023-05-07T08:14:33;15.10;99.90
8832;DHT22;4452;50.756;4.472;2023-05-07T08:16:59;15.20;99.90
8832;DHT22;4452;50.756;4.472;2023-05-07T08:19:25;15.40;99.90
8832;DHT22;4452;50.756;4.472;2023-05-07T08:21:50;15.30;99.90
8832;DHT22;4452;50.756;4.472;2023-05-07T08:24:17;15.20;99.90
8832;DHT22;4452;50.756;4.472;2023-05-07T08:26:43;15.40;99.90
8832;DHT22;4452;50.756;4.472;2023-05-07T08:29:09;15.30;99.90
8832;DHT22;4452;50.756;4.472;2023-05-07T08:31:35;15.30;99.90
8832;DHT22;4452;50.756;4.472;2023-05-07T08:34:01;15.50;99.90
8832;DHT22;4452;50.756;4.472;2023-05-07T08:36:27;15.50;99.90
8832;DHT22;4452;50.756;4.472;2023-05-07T08:38:54;15.60;99.90
8832;DHT22;4452;50.756;4.472;2023-05-07T08:41:20;15.50;99.90
8832;DHT22;4452;50.756;4.472;2023-05-07T08:43:50;15.30;99.90
8832;DHT22;4452;50.756;4.472;2023-05-07T08:46:22;15.50;99.90
8832;DHT22;4452;50.756;4.472;2023-05-07T08:48:51;15.40;99.90
8832;DHT22;4452;50.756;4.472;2023-05-07T08:51:19;15.70;99.90
8832;DHT22;4452;50.756;4.472;2023-05-07T08:53:47;15.80;99.90
8832;DHT22;4452;50.756;4.472;2023-05-07T08:56:17;15.90;99.90
8832;DHT22;4452;50.756;4.472;2023-05-07T08:58:43;15.90;99.90
8832;DHT22;4452;50.756;4.472;2023-05-07T09:01:12;16.00;99.90
8832;DHT22;4452;50.756;4.472;2023-05-07T09:03:38;16.00;99.90
8832;DHT22;4452;50.756;4.472;2023-05-07T09:06:04;16.00;99.90
8832;DHT22;4452;50.756;4.472;2023-05-07T09:08:33;16.00;99.90
8832;DHT22;4452;50.756;4.472;2023-05-07T09:10:59;16.20;99.90
8832;DHT22;4452;50.756;4.472;2023-05-07T09:13:25;16.10;99.90
8832;DHT22;4452;50.756;4.472;2023-05-07T09:15:52;16.00;99.90
8832;DHT22;4452;50.756;4.472;2023-05-07T09:18:18;16.10;99.90
8832;DHT22;4452;50.756;4.472;2023-05-07T09:20:43;16.30;99.90
8832;DHT22;4452;50.756;4.472;2023-05-07T09:23:09;16.40;99.90
8832;DHT22;4452;50.756;4.472;2023-05-07T09:25:36;16.30;99.90
8832;DHT22;4452;50.756;4.472;2023-05-07T09:28:04;16.30;99.90
8832;DHT22;4452;50.756;4.472;2023-05-07T09:30:30;16.30;99.90
8832;DHT22;4452;50.756;4.472;2023-05-07T09:32:58;16.00;99.90
8832;DHT22;4452;50.756;4.472;2023-05-07T09:35:25;16.20;99.90
8832;DHT22;4452;50.756;4.472;2023-05-07T09:37:58;16.40;99.90
8832;DHT22;4452;50.756;4.472;2023-05-07T09:40:26;16.30;99.90
8832;DHT22;4452;50.756;4.472;2023-05-07T09:42:52;16.30;99.90
8832;DHT22;4452;50.756;4.472;2023-05-07T09:45:22;16.50;99.90
8832;DHT22;4452;50.756;4.472;2023-05-07T09:47:49;16.60;99.90
8832;DHT22;4452;50.756;4.472;2023-05-07T09:50:19;16.40;99.90
8832;DHT22;4452;50.756;4.472;2023-05-07T09:52:46;16.40;99.90
8832;DHT22;4452;50.756;4.472;2023-05-07T09:55:12;16.60;99.90
8832;DHT22;4452;50.756;4.472;2023-05-07T09:57:38;16.70;99.90
8832;DHT22;4452;50.756;4.472;2023-05-07T10:00:06;16.70;99.90
8832;DHT22;4452;50.756;4.472;2023-05-07T10:02:35;16.60;99.90
8832;DHT22;4452;50.756;4.472;2023-05-07T10:05:02;16.30;99.90
8832;DHT22;4452;50.756;4.472;2023-05-07T10:07:29;16.30;99.90
8832;DHT22;4452;50.756;4.472;2023-05-07T10:09:55;16.60;99.90
8832;DHT22;4452;50.756;4.472;2023-05-07T10:12:21;16.90;99.90
8832;DHT22;4452;50.756;4.472;2023-05-07T10:14:47;16.60;99.90
8832;DHT22;4452;50.756;4.472;2023-05-07T10:17:16;16.60;99.90
8832;DHT22;4452;50.756;4.472;2023-05-07T10:19:46;16.60;99.90
8832;DHT22;4452;50.756;4.472;2023-05-07T10:22:13;16.30;99.90
8832;DHT22;4452;50.756;4.472;2023-05-07T10:24:39;16.10;99.90
8832;DHT22;4452;50.756;4.472;2023-05-07T10:27:08;16.20;99.90
8832;DHT22;4452;50.756;4.472;2023-05-07T10:30:08;16.50;99.90
8832;DHT22;4452;50.756;4.472;2023-05-07T10:33:01;16.50;99.90
8832;DHT22;4452;50.756;4.472;2023-05-07T10:35:32;16.40;99.90
8832;DHT22;4452;50.756;4.472;2023-05-07T10:38:02;16.40;99.90
8832;DHT22;4452;50.756;4.472;2023-05-07T10:40:28;16.50;99.90
8832;DHT22;4452;50.756;4.472;2023-05-07T10:43:02;16.70;99.90
8832;DHT22;4452;50.756;4.472;2023-05-07T10:45:30;16.80;99.90
8832;DHT22;4452;50.756;4.472;2023-05-07T10:50:38;17.00;99.90
8832;DHT22;4452;50.756;4.472;2023-05-07T10:55:43;16.80;99.90
8832;DHT22;4452;50.756;4.472;2023-05-07T11:00:48;17.10;99.90
8832;DHT22;4452;50.756;4.472;2023-05-07T11:03:14;17.20;99.90
8832;DHT22;4452;50.756;4.472;2023-05-07T11:05:41;17.20;99.90
8832;DHT22;4452;50.756;4.472;2023-05-07T11:08:07;17.70;99.90
8832;DHT22;4452;50.756;4.472;2023-05-07T11:10:53;18.00;99.90
8832;DHT22;4452;50.756;4.472;2023-05-07T11:13:43;17.90;99.90
8832;DHT22;4452;50.756;4.472;2023-05-07T11:16:20;17.80;99.90
8832;DHT22;4452;50.756;4.472;2023-05-07T11:18:53;17.40;99.90
8832;DHT22;4452;50.756;4.472;2023-05-07T11:23:58;17.70;99.90
8832;DHT22;4452;50.756;4.472;2023-05-07T11:26:26;17.80;99.90
8832;DHT22;4452;50.756;4.472;2023-05-07T11:28:52;18.00;99.90
8832;DHT22;4452;50.756;4.472;2023-05-07T11:31:23;18.40;99.90
8832;DHT22;4452;50.756;4.472;2023-05-07T11:33:50;18.30;99.90
8832;DHT22;4452;50.756;4.472;2023-05-07T11:36:16;18.40;99.90
8832;DHT22;4452;50.756;4.472;2023-05-07T11:38:42;18.60;99.90
8832;DHT22;4452;50.756;4.472;2023-05-07T11:41:08;18.80;99.90
8832;DHT22;4452;50.756;4.472;2023-05-07T11:43:34;19.00;99.90
8832;DHT22;4452;50.756;4.472;2023-05-07T11:46:10;18.50;99.90
8832;DHT22;4452;50.756;4.472;2023-05-07T11:48:36;18.20;99.90
8832;DHT22;4452;50.756;4.472;2023-05-07T11:51:04;18.30;99.90
8832;DHT22;4452;50.756;4.472;2023-05-07T11:53:40;18.60;99.90
8832;DHT22;4452;50.756;4.472;2023-05-07T11:56:13;18.50;99.90
8832;DHT22;4452;50.756;4.472;2023-05-07T11:58:40;17.70;99.90
8832;DHT22;4452;50.756;4.472;2023-05-07T12:01:08;17.90;99.90
8832;DHT22;4452;50.756;4.472;2023-05-07T12:03:41;17.80;99.90
8832;DHT22;4452;50.756;4.472;2023-05-07T12:06:12;18.30;99.90
8832;DHT22;4452;50.756;4.472;2023-05-07T12:08:42;18.40;99.90
8832;DHT22;4452;50.756;4.472;2023-05-07T12:11:23;18.30;99.90
8832;DHT22;4452;50.756;4.472;2023-05-07T12:13:49;18.60;99.90
8832;DHT22;4452;50.756;4.472;2023-05-07T12:16:15;18.40;99.90
8832;DHT22;4452;50.756;4.472;2023-05-07T12:18:41;18.70;99.90
8832;DHT22;4452;50.756;4.472;2023-05-07T12:21:07;18.70;99.90
8832;DHT22;4452;50.756;4.472;2023-05-07T12:23:34;18.60;99.90
8832;DHT22;4452;50.756;4.472;2023-05-07T12:26:01;18.50;99.90
8832;DHT22;4452;50.756;4.472;2023-05-07T12:28:27;18.40;99.90
8832;DHT22;4452;50.756;4.472;2023-05-07T12:30:54;18.70;99.90
8832;DHT22;4452;50.756;4.472;2023-05-07T12:33:25;18.80;99.90
8832;DHT22;4452;50.756;4.472;2023-05-07T12:35:53;18.30;99.90
8832;DHT22;4452;50.756;4.472;2023-05-07T12:38:19;18.30;99.90
8832;DHT22;4452;50.756;4.472;2023-05-07T12:40:49;18.50;99.90
8832;DHT22;4452;50.756;4.472;2023-05-07T12:43:24;18.00;99.90
8832;DHT22;4452;50.756;4.472;2023-05-07T12:45:51;18.50;99.90
8832;DHT22;4452;50.756;4.472;2023-05-07T12:48:19;18.70;99.90
8832;DHT22;4452;50.756;4.472;2023-05-07T12:50:51;18.50;99.90
8832;DHT22;4452;50.756;4.472;2023-05-07T12:53:22;18.50;99.90
8832;DHT22;4452;50.756;4.472;2023-05-07T12:55:51;18.10;99.90
8832;DHT22;4452;50.756;4.472;2023-05-07T12:58:25;17.90;99.90
8832;DHT22;4452;50.756;4.472;2023-05-07T13:00:52;17.90;99.90
8832;DHT22;4452;50.756;4.472;2023-05-07T13:05:51;17.70;99.90
8832;DHT22;4452;50.756;4.472;2023-05-07T13:08:32;17.90;99.90
8832;DHT22;4452;50.756;4.472;2023-05-07T13:10:59;17.70;99.90
8832;DHT22;4452;50.756;4.472;2023-05-07T13:13:25;17.70;99.90
8832;DHT22;4452;50.756;4.472;2023-05-07T13:15:51;17.70;99.90
8832;DHT22;4452;50.756;4.472;2023-05-07T13:18:17;17.70;99.90
8832;DHT22;4452;50.756;4.472;2023-05-07T13:20:43;17.60;99.90
8832;DHT22;4452;50.756;4.472;2023-05-07T13:23:09;17.70;99.90
8832;DHT22;4452;50.756;4.472;2023-05-07T13:25:34;17.90;99.90
8832;DHT22;4452;50.756;4.472;2023-05-07T13:28:00;17.80;99.90
8832;DHT22;4452;50.756;4.472;2023-05-07T13:30:26;17.60;99.90
8832;DHT22;4452;50.756;4.472;2023-05-07T13:32:55;17.70;99.90
8832;DHT22;4452;50.756;4.472;2023-05-07T13:35:21;17.60;99.90
8832;DHT22;4452;50.756;4.472;2023-05-07T13:37:47;17.60;99.90
8832;DHT22;4452;50.756;4.472;2023-05-07T13:40:14;17.70;99.90
8832;DHT22;4452;50.756;4.472;2023-05-07T13:42:40;17.90;99.90
8832;DHT22;4452;50.756;4.472;2023-05-07T13:45:07;18.10;99.90
8832;DHT22;4452;50.756;4.472;2023-05-07T13:47:33;18.20;99.90
8832;DHT22;4452;50.756;4.472;2023-05-07T13:49:59;18.40;99.90
8832;DHT22;4452;50.756;4.472;2023-05-07T13:52:25;18.20;99.90
8832;DHT22;4452;50.756;4.472;2023-05-07T13:54:51;17.90;99.90
8832;DHT22;4452;50.756;4.472;2023-05-07T13:57:18;18.10;99.90
8832;DHT22;4452;50.756;4.472;2023-05-07T13:59:43;18.10;99.90
8832;DHT22;4452;50.756;4.472;2023-05-07T14:02:09;18.00;99.90
8832;DHT22;4452;50.756;4.472;2023-05-07T14:04:35;17.80;99.90
8832;DHT22;4452;50.756;4.472;2023-05-07T14:07:01;17.80;99.90
8832;DHT22;4452;50.756;4.472;2023-05-07T14:09:26;17.80;99.90
8832;DHT22;4452;50.756;4.472;2023-05-07T14:11:52;17.70;99.90
8832;DHT22;4452;50.756;4.472;2023-05-07T14:14:18;17.60;99.90
8832;DHT22;4452;50.756;4.472;2023-05-07T14:16:44;17.60;99.90
8832;DHT22;4452;50.756;4.472;2023-05-07T14:19:13;17.70;99.90
8832;DHT22;4452;50.756;4.472;2023-05-07T14:21:38;17.70;99.90
8832;DHT22;4452;50.756;4.472;2023-05-07T14:24:06;17.60;99.90
8832;DHT22;4452;50.756;4.472;2023-05-07T14:26:32;17.50;99.90
8832;DHT22;4452;50.756;4.472;2023-05-07T14:28:58;17.40;99.90
8832;DHT22;4452;50.756;4.472;2023-05-07T14:31:24;17.50;99.90
8832;DHT22;4452;50.756;4.472;2023-05-07T14:33:50;17.40;99.90
8832;DHT22;4452;50.756;4.472;2023-05-07T14:36:17;17.50;99.90
8832;DHT22;4452;50.756;4.472;2023-05-07T14:38:45;17.50;99.90
8832;DHT22;4452;50.756;4.472;2023-05-07T14:41:11;17.50;99.90
8832;DHT22;4452;50.756;4.472;2023-05-07T14:43:37;17.50;99.90
8832;DHT22;4452;50.756;4.472;2023-05-07T14:46:03;17.70;99.90
8832;DHT22;4452;50.756;4.472;2023-05-07T14:48:28;17.60;99.90
8832;DHT22;4452;50.756;4.472;2023-05-07T14:50:54;17.60;99.90
8832;DHT22;4452;50.756;4.472;2023-05-07T14:53:20;17.60;99.90
8832;DHT22;4452;50.756;4.472;2023-05-07T14:55:47;17.60;99.90
8832;DHT22;4452;50.756;4.472;2023-05-07T14:58:13;17.60;99.90
8832;DHT22;4452;50.756;4.472;2023-05-07T15:00:39;17.50;99.90
8832;DHT22;4452;50.756;4.472;2023-05-07T15:03:09;17.70;99.90
8832;DHT22;4452;50.756;4.472;2023-05-07T15:05:36;17.90;99.90
8832;DHT22;4452;50.756;4.472;2023-05-07T15:08:02;18.20;99.90
8832;DHT22;4452;50.756;4.472;2023-05-07T15:10:28;18.60;99.90
8832;DHT22;4452;50.756;4.472;2023-05-07T15:12:54;18.10;99.90
8832;DHT22;4452;50.756;4.472;2023-05-07T15:15:19;17.70;99.90
8832;DHT22;4452;50.756;4.472;2023-05-07T15:17:45;18.10;99.90
8832;DHT22;4452;50.756;4.472;2023-05-07T15:20:11;18.40;99.90
8832;DHT22;4452;50.756;4.472;2023-05-07T15:22:37;18.40;99.90
8832;DHT22;4452;50.756;4.472;2023-05-07T15:25:03;18.00;99.90
8832;DHT22;4452;50.756;4.472;2023-05-07T15:27:30;18.10;99.90
8832;DHT22;4452;50.756;4.472;2023-05-07T15:29:56;18.60;99.90
8832;DHT22;4452;50.756;4.472;2023-05-07T15:32:22;18.80;99.90
8832;DHT22;4452;50.756;4.472;2023-05-07T15:34:47;18.90;99.90
8832;DHT22;4452;50.756;4.472;2023-05-07T15:37:13;18.60;99.90
8832;DHT22;4452;50.756;4.472;2023-05-07T15:39:39;18.00;99.90
8832;DHT22;4452;50.756;4.472;2023-05-07T15:42:05;18.00;99.90
8832;DHT22;4452;50.756;4.472;2023-05-07T15:44:30;17.60;99.90
8832;DHT22;4452;50.756;4.472;2023-05-07T15:47:00;17.50;99.90
8832;DHT22;4452;50.756;4.472;2023-05-07T15:49:26;17.60;99.90
8832;DHT22;4452;50.756;4.472;2023-05-07T15:51:51;17.90;99.90
8832;DHT22;4452;50.756;4.472;2023-05-07T15:54:19;17.90;99.90
8832;DHT22;4452;50.756;4.472;2023-05-07T15:56:46;18.20;99.90
8832;DHT22;4452;50.756;4.472;2023-05-07T15:59:12;18.10;99.90
8832;DHT22;4452;50.756;4.472;2023-05-07T16:01:37;17.80;99.90
8832;DHT22;4452;50.756;4.472;2023-05-07T16:04:07;17.70;99.90
8832;DHT22;4452;50.756;4.472;2023-05-07T16:06:33;17.90;99.90
8832;DHT22;4452;50.756;4.472;2023-05-07T16:08:59;18.30;99.90
8832;DHT22;4452;50.756;4.472;2023-05-07T16:11:26;18.00;99.90
8832;DHT22;4452;50.756;4.472;2023-05-07T16:13:54;18.20;99.90